createdAt,value
2023-02-22T00:00:01.081Z,60.77
2023-02-22T00:02:32.591Z,62.17
2023-02-22T00:05:02.227Z,59.37
2023-02-22T00:07:35.870Z,62.60
2023-02-22T00:10:09.169Z,57.97
2023-02-22T00:12:38.899Z,62.97
2023-02-22T00:15:09.156Z,64.70
2023-02-22T00:17:39.137Z,62.80
2023-02-22T00:20:10.097Z,66.57
2023-02-22T00:22:42.687Z,53.73
2023-02-22T00:25:12.989Z,58.20
2023-02-22T00:27:43.187Z,54.30
2023-02-22T00:30:19.185Z,52.70
2023-02-22T00:32:50.581Z,58.47
2023-02-22T00:35:23.573Z,50.03
2023-02-22T00:38:00.410Z,46.67
2023-02-22T00:40:32.981Z,45.40
2023-02-22T00:43:04.161Z,53.40
2023-02-22T00:45:35.863Z,45.10
2023-02-22T00:48:07.242Z,51.77
2023-02-22T00:50:37.316Z,48.27
2023-02-22T00:53:10.446Z,48.50
2023-02-22T00:55:41.233Z,38.53
2023-02-22T00:58:11.364Z,45.03
2023-02-22T01:00:43.014Z,52.30
2023-02-22T01:03:15.166Z,36.53
2023-02-22T01:05:45.622Z,39.60
2023-02-22T01:08:19.404Z,45.97
2023-02-22T01:10:49.633Z,42.97
2023-02-22T01:13:20.073Z,42.03
2023-02-22T01:15:50.044Z,35.23
2023-02-22T01:18:21.991Z,27.30
2023-02-22T01:20:51.656Z,23.87
2023-02-22T01:23:24.025Z,25.07
2023-02-22T01:25:54.198Z,22.03
2023-02-22T01:28:24.857Z,20.73
2023-02-22T01:30:56.782Z,16.20
2023-02-22T01:33:27.436Z,17.10
2023-02-22T01:35:57.067Z,12.10
2023-02-22T01:38:29.513Z,14.20
2023-02-22T01:40:59.273Z,15.50
2023-02-22T01:43:33.414Z,13.87
2023-02-22T01:46:05.346Z,17.13
2023-02-22T01:48:41.088Z,19.00
2023-02-22T01:51:15.593Z,30.60
2023-02-22T01:53:53.630Z,24.50
2023-02-22T01:56:24.736Z,25.67
2023-02-22T01:58:58.484Z,26.43
2023-02-22T02:01:29.558Z,31.40
2023-02-22T02:04:00.876Z,32.70
2023-02-22T02:06:34.246Z,31.70
2023-02-22T02:09:12.832Z,31.20
2023-02-22T02:11:44.392Z,25.40
2023-02-22T02:14:16.291Z,20.83
2023-02-22T02:16:53.350Z,21.90
2023-02-22T02:19:35.091Z,25.70
2023-02-22T02:22:22.366Z,24.30
2023-02-22T02:25:29.450Z,20.30
2023-02-22T02:28:29.960Z,24.80
2023-02-22T02:31:25.903Z,24.03
2023-02-22T02:34:05.526Z,17.90
2023-02-22T02:36:40.610Z,18.27
2023-02-22T02:39:20.307Z,20.90
2023-02-22T02:41:53.287Z,19.67
2023-02-22T02:44:31.665Z,18.00
2023-02-22T02:47:08.149Z,17.10
2023-02-22T02:49:46.838Z,16.73
2023-02-22T02:52:20.862Z,18.27
2023-02-22T02:54:52.079Z,19.60
2023-02-22T02:57:22.025Z,15.97
2023-02-22T02:59:51.759Z,18.50
2023-02-22T03:02:43.888Z,21.87
2023-02-22T03:05:32.993Z,18.73
2023-02-22T03:08:10.913Z,18.80
2023-02-22T03:10:51.215Z,17.17
2023-02-22T03:13:33.525Z,18.57
2023-02-22T03:16:14.228Z,19.10
2023-02-22T03:18:54.541Z,16.10
2023-02-22T03:21:36.584Z,12.73
2023-02-22T03:24:12.699Z,16.17
2023-02-22T03:26:45.315Z,13.83
2023-02-22T03:29:20.258Z,16.27
2023-02-22T03:31:56.056Z,12.47
2023-02-22T03:34:32.404Z,14.47
2023-02-22T03:37:13.974Z,15.30
2023-02-22T03:39:47.307Z,17.90
2023-02-22T03:42:22.501Z,19.17
2023-02-22T03:44:54.462Z,21.60
2023-02-22T03:47:31.408Z,19.33
2023-02-22T03:50:07.041Z,23.23
2023-02-22T03:52:41.592Z,19.73
2023-02-22T03:55:17.833Z,22.67
2023-02-22T03:57:51.906Z,21.30
2023-02-22T04:00:24.696Z,26.60
2023-02-22T04:02:54.728Z,30.03
2023-02-22T04:05:25.989Z,28.50
2023-02-22T04:08:00.133Z,28.57
2023-02-22T04:10:30.716Z,29.40
2023-02-22T04:13:00.860Z,28.20
2023-02-22T04:15:30.615Z,32.17
2023-02-22T04:18:06.925Z,26.93
2023-02-22T04:20:36.603Z,28.67
2023-02-22T04:23:17.215Z,28.20
2023-02-22T04:25:47.066Z,26.70
2023-02-22T04:28:19.366Z,29.20
2023-02-22T04:31:12.136Z,28.07
2023-02-22T04:33:42.156Z,27.43
2023-02-22T04:36:16.084Z,30.60
2023-02-22T04:38:49.248Z,31.43
2023-02-22T04:41:20.869Z,31.70
2023-02-22T04:43:50.543Z,35.03
2023-02-22T04:46:24.020Z,33.33
2023-02-22T04:48:55.170Z,37.57
2023-02-22T04:51:28.054Z,38.17
2023-02-22T04:54:08.686Z,41.30
2023-02-22T04:56:40.649Z,37.57
2023-02-22T04:59:10.294Z,39.80
2023-02-22T05:01:41.451Z,33.97
2023-02-22T05:04:11.108Z,42.87
2023-02-22T05:06:40.775Z,42.70
2023-02-22T05:09:13.110Z,39.67
2023-02-22T05:11:42.848Z,39.90
2023-02-22T05:14:12.809Z,39.03
2023-02-22T05:16:42.531Z,49.57
2023-02-22T05:19:12.134Z,43.20
2023-02-22T05:21:42.099Z,43.47
2023-02-22T05:24:14.426Z,44.23
2023-02-22T05:26:46.104Z,44.73
2023-02-22T05:29:16.172Z,46.17
2023-02-22T05:31:45.894Z,36.13
2023-02-22T05:34:15.639Z,34.00
2023-02-22T05:36:46.593Z,41.50
2023-02-22T05:39:19.036Z,44.10
2023-02-22T05:41:48.732Z,43.77
2023-02-22T05:44:18.476Z,35.40
2023-02-22T05:46:48.177Z,40.10
2023-02-22T05:49:18.514Z,33.13
2023-02-22T05:51:48.095Z,33.90
2023-02-22T05:54:20.419Z,39.63
2023-02-22T05:56:50.571Z,33.00
2023-02-22T05:59:20.903Z,33.70
2023-02-22T06:01:50.533Z,35.63
2023-02-22T06:04:20.338Z,29.17
2023-02-22T06:06:50.000Z,34.80
2023-02-22T06:09:22.370Z,31.13
2023-02-22T06:11:54.381Z,32.23
2023-02-22T06:14:24.423Z,33.00
2023-02-22T06:16:56.947Z,27.30
2023-02-22T06:19:27.118Z,27.20
2023-02-22T06:22:00.027Z,32.17
2023-02-22T06:24:32.287Z,40.03
2023-02-22T06:27:04.709Z,27.30
2023-02-22T06:29:34.368Z,27.63
2023-02-22T06:32:04.105Z,27.47
2023-02-22T06:34:33.859Z,30.27
2023-02-22T06:37:03.462Z,30.17
2023-02-22T06:39:35.703Z,35.33
2023-02-22T06:42:05.412Z,24.27
2023-02-22T06:44:35.490Z,31.63
2023-02-22T06:47:05.262Z,22.23
2023-02-22T06:49:34.889Z,22.97
2023-02-22T06:52:06.746Z,30.63
2023-02-22T06:54:40.004Z,24.33
2023-02-22T06:57:10.310Z,28.80
2023-02-22T06:59:39.955Z,34.03
2023-02-22T07:02:09.794Z,58.57
2023-02-22T07:04:41.041Z,28.53
2023-02-22T07:07:12.658Z,31.50
2023-02-22T07:09:45.646Z,32.57
2023-02-22T07:12:15.360Z,30.37
2023-02-22T07:14:45.684Z,29.30
2023-02-22T07:17:15.387Z,30.80
2023-02-22T07:19:45.003Z,29.70
2023-02-22T07:22:15.199Z,25.60
2023-02-22T07:24:47.975Z,28.97
2023-02-22T07:27:17.823Z,38.53
2023-02-22T07:29:47.563Z,36.40
2023-02-22T07:32:17.529Z,33.60
2023-02-22T07:34:48.688Z,35.80
2023-02-22T07:37:21.722Z,39.10
2023-02-22T07:39:57.392Z,31.10
2023-02-22T07:42:28.549Z,34.20
2023-02-22T07:45:00.543Z,36.37
2023-02-22T07:47:30.425Z,35.83
2023-02-22T07:50:00.273Z,39.43
2023-02-22T07:52:29.867Z,44.03
2023-02-22T07:55:02.159Z,51.40
2023-02-22T07:57:31.821Z,50.63
2023-02-22T08:00:01.746Z,49.00
2023-02-22T08:02:34.413Z,49.57
2023-02-22T08:05:04.098Z,45.70
2023-02-22T08:07:33.743Z,47.50
2023-02-22T08:10:10.312Z,50.40
2023-02-22T08:13:24.823Z,48.33
2023-02-22T11:29:37.081Z,38.67
2023-02-22T11:32:21.508Z,40.57
2023-02-22T11:35:03.426Z,36.57
2023-02-22T11:37:39.260Z,38.47
2023-02-22T11:40:18.479Z,37.73
2023-02-22T11:42:49.039Z,36.90
2023-02-22T11:45:25.096Z,35.30
2023-02-22T11:47:57.358Z,30.87
2023-02-22T11:50:31.792Z,35.50
2023-02-22T11:53:17.236Z,33.57
2023-02-22T11:55:54.750Z,33.37
2023-02-22T11:58:35.316Z,33.50
2023-02-22T12:01:17.526Z,34.37
2023-02-22T12:04:18.908Z,35.23
2023-02-22T12:06:58.464Z,34.27
2023-02-22T12:09:37.832Z,44.80
2023-02-22T12:12:19.026Z,47.20
2023-02-22T12:15:03.104Z,39.40
2023-02-22T12:18:00.066Z,34.57
2023-02-22T12:20:42.632Z,33.87
2023-02-22T12:23:26.149Z,29.07
2023-02-22T12:26:01.767Z,38.00
2023-02-22T12:28:38.702Z,30.40
2023-02-22T12:31:20.973Z,30.23
2023-02-22T12:34:02.822Z,30.10
2023-02-22T12:36:39.285Z,29.50
2023-02-22T12:39:27.463Z,31.90
2023-02-22T12:41:58.768Z,25.17
2023-02-22T12:44:33.963Z,29.40
2023-02-22T12:47:05.625Z,24.57
2023-02-22T12:49:43.001Z,26.20
2023-02-22T12:52:22.260Z,24.47
2023-02-22T12:55:31.380Z,22.07
2023-02-22T13:04:20.509Z,26.87
2023-02-22T13:30:30.250Z,19.07
2023-02-22T16:30:32.645Z,19.80
2023-02-22T16:33:34.192Z,15.80
2023-02-22T16:36:27.691Z,20.07
2023-02-22T16:39:39.801Z,22.40
2023-02-22T16:42:24.508Z,21.33
2023-02-22T16:45:46.464Z,24.20
2023-02-22T16:48:30.215Z,20.30
2023-02-22T16:51:44.328Z,118.87
2023-02-22T16:54:38.059Z,68.27
2023-02-22T16:57:46.407Z,51.70
2023-02-22T17:00:33.004Z,56.80
2023-02-22T17:03:17.578Z,61.37
2023-02-22T17:06:05.406Z,56.77
2023-02-22T17:09:03.317Z,53.23
2023-02-22T17:12:01.325Z,44.83
2023-02-22T17:14:47.720Z,36.90
2023-02-22T17:17:44.069Z,23.73
2023-02-22T17:29:05.024Z,22.33
2023-02-22T17:32:32.264Z,28.33
2023-02-22T17:40:12.797Z,28.17
2023-02-22T17:45:50.548Z,31.33
2023-02-22T17:48:32.359Z,31.50
2023-02-22T17:51:54.842Z,28.97
2023-02-22T17:55:30.776Z,34.00
2023-02-22T18:01:51.085Z,24.70
2023-02-22T18:05:31.365Z,24.23
2023-02-22T18:08:59.231Z,31.20
2023-02-22T18:12:46.760Z,24.17
2023-02-22T18:19:38.949Z,23.93
2023-02-22T18:22:53.831Z,20.20
2023-02-22T18:26:03.862Z,18.77
2023-02-22T18:28:44.964Z,20.70
2023-02-22T18:31:19.647Z,22.00
2023-02-22T18:33:51.773Z,21.13
2023-02-22T18:36:26.595Z,20.37
2023-02-22T18:39:03.547Z,19.40
2023-02-22T18:41:36.286Z,26.93
2023-02-22T18:44:10.565Z,19.67
2023-02-22T18:46:40.816Z,16.70
2023-02-22T18:49:15.293Z,17.53
2023-02-22T18:51:46.352Z,16.37
2023-02-22T18:54:22.219Z,18.30
2023-02-22T18:56:52.065Z,19.60
2023-02-22T18:59:25.074Z,19.37
2023-02-22T19:01:54.951Z,17.13
2023-02-22T19:04:25.196Z,19.73
2023-02-22T19:06:57.650Z,21.00
2023-02-22T19:09:29.965Z,19.63
2023-02-22T19:11:59.687Z,18.20
2023-02-22T19:14:29.422Z,20.87
2023-02-22T19:17:01.536Z,18.63
2023-02-22T19:19:31.679Z,19.37
2023-02-22T19:22:01.346Z,19.57
2023-02-22T19:24:33.641Z,21.33
2023-02-22T19:27:05.412Z,18.23
2023-02-22T19:29:38.148Z,18.70
2023-02-22T19:32:08.035Z,18.90
2023-02-22T19:34:38.218Z,15.60
2023-02-22T19:37:08.742Z,17.30
2023-02-22T19:39:42.430Z,17.33
2023-02-22T19:42:12.771Z,16.93
2023-02-22T19:44:42.485Z,20.33
2023-02-22T19:47:12.105Z,17.93
2023-02-22T19:49:41.892Z,23.27
2023-02-22T19:52:11.519Z,17.00
2023-02-22T19:54:44.545Z,17.20
2023-02-22T19:57:16.114Z,16.43
2023-02-22T19:59:46.128Z,18.37
2023-02-22T20:02:15.937Z,19.90
2023-02-22T20:04:50.083Z,19.00
2023-02-22T20:07:19.805Z,19.70
2023-02-22T20:09:52.108Z,17.23
2023-02-22T20:12:21.844Z,18.90
2023-02-22T20:14:51.477Z,18.53
2023-02-22T20:17:21.097Z,14.30
2023-02-22T20:19:50.780Z,20.63
2023-02-22T20:22:20.881Z,17.40
2023-02-22T20:24:53.352Z,19.57
2023-02-22T20:27:24.401Z,19.07
2023-02-22T20:29:54.065Z,14.40
2023-02-22T20:32:24.717Z,15.97
2023-02-22T20:34:54.870Z,18.70
2023-02-22T20:37:24.582Z,18.03
2023-02-22T20:39:56.832Z,17.40
2023-02-22T20:42:26.445Z,13.83
2023-02-22T20:45:01.718Z,15.17
2023-02-22T20:47:31.552Z,12.40
2023-02-22T20:50:01.224Z,16.43
2023-02-22T20:52:30.909Z,16.03
2023-02-22T20:55:04.315Z,13.23
2023-02-22T20:57:33.995Z,15.00
2023-02-22T21:00:03.721Z,13.90
2023-02-22T21:02:33.413Z,14.07
2023-02-22T21:05:03.083Z,13.10
2023-02-22T21:07:32.795Z,13.93
2023-02-22T21:10:06.111Z,17.33
2023-02-22T21:12:36.730Z,12.40
2023-02-22T21:15:07.783Z,16.40
2023-02-22T21:17:37.652Z,11.27
2023-02-22T21:20:12.245Z,11.37
2023-02-22T21:22:43.869Z,11.53
2023-02-22T21:25:16.729Z,14.33
2023-02-22T21:27:47.126Z,15.10
2023-02-22T21:30:17.859Z,12.30
2023-02-22T21:32:47.473Z,13.57
2023-02-22T21:35:17.176Z,11.90
2023-02-22T21:37:46.800Z,11.60
2023-02-22T21:40:21.844Z,13.60
2023-02-22T21:42:52.024Z,15.17
2023-02-22T21:45:23.391Z,13.10
2023-02-22T21:47:54.720Z,11.47
2023-02-22T21:50:25.571Z,14.77
2023-02-22T21:52:55.384Z,11.63
2023-02-22T21:55:27.633Z,11.50
2023-02-22T21:57:57.237Z,11.17
2023-02-22T22:00:38.136Z,13.67
2023-02-22T22:03:12.796Z,16.70
2023-02-22T22:05:45.315Z,10.20
2023-02-22T22:08:19.543Z,11.00
2023-02-22T22:10:56.480Z,14.90
2023-02-22T22:13:28.117Z,11.93
2023-02-22T22:15:57.922Z,11.90
2023-02-22T22:18:27.693Z,13.00
2023-02-22T22:20:57.313Z,12.13
2023-02-22T22:23:26.904Z,14.40
2023-02-22T22:26:10.855Z,15.00
2023-02-22T22:28:41.772Z,14.57
2023-02-22T22:31:12.577Z,12.33
2023-02-22T22:33:44.752Z,14.40
2023-02-22T22:36:16.664Z,11.47
2023-02-22T22:38:47.189Z,13.33
2023-02-22T22:41:21.942Z,17.47
2023-02-22T22:43:54.103Z,18.13
2023-02-22T22:46:24.151Z,23.57
2023-02-22T22:48:53.897Z,14.00
2023-02-22T22:51:23.825Z,17.47
2023-02-22T22:53:54.866Z,21.97
2023-02-22T22:56:28.127Z,21.60
2023-02-22T22:58:59.789Z,16.40
2023-02-22T23:01:34.296Z,21.93
2023-02-22T23:04:06.454Z,20.70
2023-02-22T23:06:39.280Z,23.13
2023-02-22T23:09:12.145Z,18.33
2023-02-22T23:11:46.386Z,17.70
2023-02-22T23:14:19.525Z,17.07
2023-02-22T23:16:50.119Z,18.57
2023-02-22T23:19:20.476Z,17.27
2023-02-22T23:21:51.408Z,24.70
2023-02-22T23:24:22.556Z,17.80
2023-02-22T23:26:54.873Z,20.77
2023-02-22T23:29:25.544Z,21.73
2023-02-22T23:31:55.294Z,19.13
2023-02-22T23:34:26.198Z,20.20
2023-02-22T23:36:55.902Z,19.63
2023-02-22T23:39:27.339Z,21.17
2023-02-22T23:42:01.273Z,19.37
2023-02-22T23:44:31.634Z,17.20
2023-02-22T23:47:02.537Z,18.37
2023-02-22T23:49:36.240Z,22.00
2023-02-22T23:52:06.706Z,22.87
2023-02-22T23:54:43.856Z,24.60
2023-02-22T23:57:17.617Z,21.80
2023-02-22T23:59:47.232Z,23.47
